createdAt,value
2018-07-20T00:01:33.684Z,18.74
2018-07-20T00:04:02.280Z,18.80
2018-07-20T00:06:38.090Z,18.93
2018-07-20T00:09:08.529Z,19.01
2018-07-20T00:11:37.248Z,19.03
2018-07-20T00:14:05.965Z,18.86
2018-07-20T00:16:34.608Z,18.78
2018-07-20T00:19:03.233Z,18.82
2018-07-20T00:21:31.790Z,18.84
2018-07-20T00:24:00.385Z,18.84
2018-07-20T00:26:28.945Z,18.84
2018-07-20T00:28:57.496Z,18.77
2018-07-20T00:31:26.108Z,18.79
2018-07-20T00:33:54.668Z,18.80
2018-07-20T00:36:23.503Z,18.70
2018-07-20T00:38:52.139Z,18.59
2018-07-20T00:41:23.037Z,18.52
2018-07-20T00:43:51.581Z,18.39
2018-07-20T00:46:20.197Z,18.19
2018-07-20T00:48:48.780Z,18.14
2018-07-20T00:51:17.398Z,18.16
2018-07-20T00:53:46.080Z,18.20
2018-07-20T00:56:14.628Z,18.26
2018-07-20T00:58:43.215Z,18.32
2018-07-20T01:01:11.794Z,18.32
2018-07-20T01:03:40.621Z,18.20
2018-07-20T01:06:09.235Z,18.10
2018-07-20T01:08:37.831Z,18.00
2018-07-20T01:11:06.441Z,17.90
2018-07-20T01:13:35.079Z,17.81
2018-07-20T01:16:03.621Z,17.83
2018-07-20T01:18:32.184Z,17.88
2018-07-20T01:21:00.743Z,17.74
2018-07-20T01:23:29.742Z,17.60
2018-07-20T01:25:58.344Z,17.59
2018-07-20T01:28:26.988Z,17.66
2018-07-20T01:30:55.587Z,17.68
2018-07-20T01:33:24.181Z,17.63
2018-07-20T01:35:52.821Z,17.54
2018-07-20T01:38:21.738Z,17.47
2018-07-20T01:40:50.294Z,17.42
2018-07-20T01:43:18.873Z,17.43
2018-07-20T01:45:47.433Z,17.39
2018-07-20T01:48:16.028Z,17.47
2018-07-20T01:50:44.552Z,17.51
2018-07-20T01:53:13.387Z,17.56
2018-07-20T01:55:42.043Z,17.58
2018-07-20T01:58:10.602Z,17.66
2018-07-20T02:00:39.184Z,17.58
2018-07-20T02:03:07.980Z,17.53
2018-07-20T02:05:41.885Z,17.41
2018-07-20T02:08:11.428Z,17.33
2018-07-20T02:10:39.978Z,17.30
2018-07-20T02:13:08.648Z,17.31
2018-07-20T02:15:37.240Z,17.38
2018-07-20T02:18:05.921Z,17.33
2018-07-20T02:20:34.496Z,17.36
2018-07-20T02:23:03.216Z,17.43
2018-07-20T02:25:31.948Z,17.48
2018-07-20T02:28:00.512Z,17.39
2018-07-20T02:30:29.110Z,17.20
2018-07-20T02:32:57.683Z,16.97
2018-07-20T02:35:26.231Z,16.89
2018-07-20T02:37:54.826Z,16.89
2018-07-20T02:40:23.380Z,16.84
2018-07-20T02:42:51.903Z,16.80
2018-07-20T02:45:20.528Z,16.73
2018-07-20T02:47:49.221Z,16.71
2018-07-20T02:50:17.819Z,16.67
2018-07-20T02:52:46.371Z,16.72
2018-07-20T02:55:16.229Z,16.60
2018-07-20T02:57:44.974Z,16.66
2018-07-20T03:00:13.505Z,16.71
2018-07-20T03:02:42.202Z,16.72
2018-07-20T03:05:11.322Z,16.71
2018-07-20T03:07:39.931Z,16.77
2018-07-20T03:10:08.537Z,16.76
2018-07-20T03:12:37.133Z,16.79
2018-07-20T03:15:05.776Z,16.78
2018-07-20T03:17:34.336Z,16.63
2018-07-20T03:20:03.003Z,16.62
2018-07-20T03:22:31.640Z,16.62
2018-07-20T03:25:00.420Z,16.48
2018-07-20T03:27:29.016Z,16.37
2018-07-20T03:29:57.591Z,16.30
2018-07-20T03:32:26.185Z,16.05
2018-07-20T03:34:54.732Z,15.84
2018-07-20T03:37:23.523Z,15.81
2018-07-20T03:39:52.089Z,15.83
2018-07-20T03:42:20.679Z,15.88
2018-07-20T03:44:49.240Z,16.02
2018-07-20T03:47:17.773Z,16.01
2018-07-20T03:49:46.335Z,16.18
2018-07-20T03:52:14.927Z,16.25
2018-07-20T03:54:43.863Z,16.25
2018-07-20T03:57:13.000Z,16.19
2018-07-20T03:59:41.552Z,16.25
2018-07-20T04:02:11.273Z,16.42
2018-07-20T04:04:39.902Z,16.47
2018-07-20T04:07:09.498Z,16.50
2018-07-20T04:09:38.228Z,16.53
2018-07-20T04:12:06.854Z,16.60
2018-07-20T04:14:35.415Z,16.71
2018-07-20T04:17:04.045Z,16.79
2018-07-20T04:19:32.621Z,16.82
2018-07-20T04:22:01.163Z,16.88
2018-07-20T04:24:29.764Z,16.89
2018-07-20T04:26:58.295Z,16.92
2018-07-20T04:29:27.063Z,16.95
2018-07-20T04:31:55.708Z,17.04
2018-07-20T04:34:24.515Z,17.04
2018-07-20T04:36:53.283Z,17.02
2018-07-20T04:39:21.846Z,17.07
2018-07-20T04:41:50.427Z,17.14
2018-07-20T04:44:19.087Z,17.26
2018-07-20T04:46:47.611Z,17.33
2018-07-20T04:49:16.280Z,17.40
2018-07-20T04:51:44.912Z,17.46
2018-07-20T04:54:13.552Z,17.49
2018-07-20T04:56:42.142Z,17.40
2018-07-20T04:59:10.701Z,17.41
2018-07-20T05:01:39.247Z,17.52
2018-07-20T05:04:07.869Z,17.62
2018-07-20T05:06:36.412Z,17.72
2018-07-20T05:09:08.256Z,17.74
2018-07-20T05:11:37.107Z,17.84
2018-07-20T05:14:05.763Z,17.94
2018-07-20T05:16:34.387Z,18.04
2018-07-20T05:19:03.637Z,18.12
2018-07-20T05:21:32.208Z,18.19
2018-07-20T05:24:00.821Z,18.30
2018-07-20T05:26:29.352Z,18.42
2018-07-20T05:28:58.102Z,18.44
2018-07-20T05:31:26.784Z,18.50
2018-07-20T05:33:55.333Z,18.60
2018-07-20T05:36:24.134Z,18.74
2018-07-20T05:38:52.712Z,18.84
2018-07-20T05:41:21.336Z,18.86
2018-07-20T05:43:49.940Z,18.99
2018-07-20T05:46:18.748Z,19.06
2018-07-20T05:48:47.368Z,19.15
2018-07-20T05:51:16.687Z,19.25
2018-07-20T05:53:45.228Z,19.33
2018-07-20T05:56:13.769Z,19.46
2018-07-20T05:58:42.343Z,19.55
2018-07-20T06:01:10.909Z,19.65
2018-07-20T06:03:39.498Z,19.80
2018-07-20T06:06:08.851Z,19.83
2018-07-20T06:08:37.652Z,19.98
2018-07-20T06:11:06.755Z,20.08
2018-07-20T06:13:35.299Z,20.30
2018-07-20T06:16:03.872Z,20.50
2018-07-20T06:18:32.441Z,20.59
2018-07-20T06:21:00.992Z,20.86
2018-07-20T06:23:29.663Z,20.86
2018-07-20T06:25:58.217Z,21.12
2018-07-20T06:28:26.804Z,21.08
2018-07-20T06:30:55.412Z,21.15
2018-07-20T06:33:23.954Z,21.28
2018-07-20T06:35:52.536Z,21.52
2018-07-20T06:38:21.160Z,21.54
2018-07-20T06:40:50.000Z,21.67
2018-07-20T06:43:18.545Z,21.74
2018-07-20T06:45:47.323Z,21.96
2018-07-20T06:48:15.904Z,22.12
2018-07-20T06:50:44.905Z,22.12
2018-07-20T06:53:14.213Z,22.20
2018-07-20T06:55:42.784Z,22.29
2018-07-20T06:58:11.380Z,22.36
2018-07-20T07:00:39.997Z,22.49
2018-07-20T07:03:08.638Z,22.58
2018-07-20T07:05:37.451Z,22.74
2018-07-20T07:08:06.031Z,22.91
2018-07-20T07:10:34.843Z,23.00
2018-07-20T07:13:03.505Z,23.16
2018-07-20T07:15:32.095Z,23.32
2018-07-20T07:18:00.648Z,23.35
2018-07-20T07:20:29.285Z,23.46
2018-07-20T07:22:57.859Z,23.69
2018-07-20T07:25:27.337Z,23.81
2018-07-20T07:27:55.912Z,23.87
2018-07-20T07:30:24.710Z,23.96
2018-07-20T07:32:53.287Z,23.91
2018-07-20T07:35:21.819Z,23.96
2018-07-20T07:37:50.397Z,24.24
2018-07-20T07:40:18.979Z,24.20
2018-07-20T07:42:47.519Z,24.34
2018-07-20T07:45:16.093Z,24.41
2018-07-20T07:47:44.691Z,24.39
2018-07-20T07:50:13.287Z,24.09
2018-07-20T07:52:41.963Z,24.23
2018-07-20T07:55:11.109Z,24.59
2018-07-20T07:57:39.841Z,24.71
2018-07-20T08:00:08.412Z,24.82
2018-07-20T08:02:37.961Z,24.95
2018-07-20T08:05:06.562Z,24.99
2018-07-20T08:07:36.368Z,25.15
2018-07-20T08:10:05.428Z,25.40
2018-07-20T08:12:33.934Z,25.38
2018-07-20T08:15:02.564Z,25.42
2018-07-20T08:17:31.157Z,25.41
2018-07-20T08:19:59.735Z,25.37
2018-07-20T08:22:28.291Z,25.34
2018-07-20T08:24:56.843Z,25.28
2018-07-20T08:27:25.776Z,25.27
2018-07-20T08:29:54.323Z,25.16
2018-07-20T08:32:23.424Z,25.20
2018-07-20T08:34:51.973Z,25.30
2018-07-20T08:37:21.092Z,25.68
2018-07-20T08:39:49.716Z,25.73
2018-07-20T08:42:18.295Z,25.90
2018-07-20T08:44:46.964Z,25.95
2018-07-20T08:47:18.136Z,25.75
2018-07-20T08:49:46.790Z,25.74
2018-07-20T08:52:15.686Z,25.88
2018-07-20T08:54:44.359Z,25.87
2018-07-20T08:57:15.790Z,26.01
2018-07-20T08:59:44.368Z,26.27
2018-07-20T09:02:12.959Z,26.47
2018-07-20T09:04:41.555Z,26.68
2018-07-20T09:07:10.695Z,26.87
2018-07-20T09:09:39.344Z,27.09
2018-07-20T09:12:07.872Z,27.04
2018-07-20T09:14:36.431Z,27.20
2018-07-20T09:17:05.998Z,27.25
2018-07-20T09:19:34.893Z,27.14
2018-07-20T09:22:03.693Z,27.13
2018-07-20T09:24:32.555Z,27.22
2018-07-20T09:27:01.080Z,27.31
2018-07-20T09:29:29.756Z,27.50
2018-07-20T09:31:58.299Z,27.61
2018-07-20T09:34:26.975Z,27.77
2018-07-20T09:36:55.520Z,27.92
2018-07-20T09:39:24.427Z,27.92
2018-07-20T09:41:52.976Z,27.88
2018-07-20T09:44:21.778Z,27.90
2018-07-20T09:46:50.299Z,27.93
2018-07-20T09:49:19.170Z,27.77
2018-07-20T09:51:47.760Z,28.07
2018-07-20T09:54:16.343Z,28.15
2018-07-20T09:56:45.018Z,28.37
2018-07-20T09:59:13.868Z,28.40
2018-07-20T10:01:42.636Z,28.44
2018-07-20T10:04:11.265Z,28.62
2018-07-20T10:06:40.040Z,28.60
2018-07-20T10:09:13.170Z,28.48
2018-07-20T10:11:41.965Z,28.67
2018-07-20T10:14:10.536Z,28.87
2018-07-20T10:16:41.796Z,28.81
2018-07-20T10:19:10.572Z,28.81
2018-07-20T10:21:39.212Z,28.78
2018-07-20T10:24:07.833Z,28.61
2018-07-20T10:26:36.451Z,28.60
2018-07-20T10:29:05.044Z,28.72
2018-07-20T10:31:33.899Z,29.02
2018-07-20T10:34:02.761Z,28.88
2018-07-20T10:36:31.491Z,28.94
2018-07-20T10:39:00.214Z,29.04
2018-07-20T10:41:28.792Z,29.06
2018-07-20T10:43:57.363Z,28.65
2018-07-20T10:46:26.328Z,28.65
2018-07-20T10:48:54.924Z,28.72
2018-07-20T10:51:23.498Z,28.77
2018-07-20T10:53:52.358Z,28.91
2018-07-20T10:56:21.120Z,29.12
2018-07-20T10:58:49.708Z,29.30
2018-07-20T11:01:18.591Z,29.39
2018-07-20T11:03:47.390Z,29.53
2018-07-20T11:06:16.120Z,29.78
2018-07-20T11:08:44.794Z,29.91
2018-07-20T11:11:14.427Z,29.75
2018-07-20T11:13:43.067Z,29.66
2018-07-20T11:16:11.647Z,29.48
2018-07-20T11:18:40.188Z,29.46
2018-07-20T11:21:08.971Z,29.72
2018-07-20T11:23:37.567Z,29.91
2018-07-20T11:26:06.880Z,30.00
2018-07-20T11:28:35.468Z,29.89
2018-07-20T11:31:04.130Z,29.78
2018-07-20T11:33:32.989Z,29.57
2018-07-20T11:36:01.558Z,29.14
2018-07-20T11:38:30.106Z,29.13
2018-07-20T11:40:58.671Z,29.25
2018-07-20T11:43:27.709Z,29.37
2018-07-20T11:45:56.284Z,29.33
2018-07-20T11:48:25.306Z,29.24
2018-07-20T11:50:53.864Z,29.20
2018-07-20T11:53:22.702Z,29.43
2018-07-20T11:55:51.312Z,29.68
2018-07-20T11:58:19.885Z,29.85
2018-07-20T12:00:48.450Z,29.95
2018-07-20T12:03:17.161Z,29.95
2018-07-20T12:05:45.756Z,29.95
2018-07-20T12:08:14.494Z,30.15
2018-07-20T12:10:43.257Z,30.09
2018-07-20T12:13:15.648Z,29.78
2018-07-20T12:15:45.093Z,29.69
2018-07-20T12:18:13.703Z,29.69
2018-07-20T12:20:43.068Z,29.92
2018-07-20T12:23:13.330Z,30.30
2018-07-20T12:25:41.852Z,30.36
2018-07-20T12:28:10.504Z,30.33
2018-07-20T12:30:39.020Z,30.29
2018-07-20T12:33:07.948Z,30.25
2018-07-20T12:35:36.558Z,30.06
2018-07-20T12:38:05.232Z,30.06
2018-07-20T12:40:33.911Z,30.04
2018-07-20T12:43:02.469Z,29.91
2018-07-20T12:45:31.356Z,29.86
2018-07-20T12:48:00.028Z,29.93
2018-07-20T12:50:28.721Z,29.80
2018-07-20T12:52:57.277Z,29.59
2018-07-20T12:55:25.881Z,29.58
2018-07-20T12:57:54.412Z,29.67
2018-07-20T13:00:23.063Z,29.62
2018-07-20T13:02:51.720Z,29.52
2018-07-20T13:05:20.273Z,29.50
2018-07-20T13:07:49.020Z,29.72
2018-07-20T13:10:17.595Z,29.94
2018-07-20T13:12:46.157Z,29.96
2018-07-20T13:15:18.662Z,29.94
2018-07-20T13:17:47.966Z,29.77
2018-07-20T13:20:16.557Z,29.94
2018-07-20T13:22:45.145Z,30.07
2018-07-20T13:25:16.137Z,30.27
2018-07-20T13:27:44.695Z,30.31
2018-07-20T13:30:13.255Z,29.77
2018-07-20T13:32:41.828Z,29.54
2018-07-20T13:35:10.776Z,29.41
2018-07-20T13:37:39.787Z,29.39
2018-07-20T13:40:08.752Z,29.54
2018-07-20T13:42:37.320Z,29.73
2018-07-20T13:45:07.073Z,29.89
2018-07-20T13:47:36.545Z,29.88
2018-07-20T13:50:05.927Z,29.93
2018-07-20T13:52:35.153Z,29.88
2018-07-20T13:55:04.092Z,29.84
2018-07-20T13:57:32.840Z,29.94
2018-07-20T14:00:01.406Z,29.99
2018-07-20T14:02:30.240Z,29.75
2018-07-20T14:04:58.874Z,29.76
2018-07-20T14:07:27.563Z,29.70
2018-07-20T14:09:57.432Z,29.69
2018-07-20T14:12:26.088Z,29.88
2018-07-20T14:14:55.762Z,29.92
2018-07-20T14:17:24.400Z,29.97
2018-07-20T14:19:53.097Z,29.96
2018-07-20T14:22:21.676Z,29.90
2018-07-20T14:24:50.388Z,29.80
2018-07-20T14:27:19.156Z,29.56
2018-07-20T14:29:47.736Z,29.56
2018-07-20T14:32:16.324Z,29.61
2018-07-20T14:34:44.892Z,29.55
2018-07-20T14:37:15.060Z,29.69
2018-07-20T14:39:44.518Z,29.79
2018-07-20T14:42:13.260Z,30.01
2018-07-20T14:44:41.918Z,30.25
2018-07-20T14:47:10.587Z,30.18
2018-07-20T14:49:39.445Z,30.20
2018-07-20T14:52:08.026Z,30.06
2018-07-20T14:54:36.592Z,29.93
2018-07-20T14:57:05.156Z,29.80
2018-07-20T14:59:33.786Z,29.86
2018-07-20T15:02:02.385Z,29.92
2018-07-20T15:04:30.959Z,29.97
2018-07-20T15:06:59.560Z,30.01
2018-07-20T15:09:28.297Z,30.00
2018-07-20T15:11:57.055Z,29.94
2018-07-20T15:14:25.725Z,29.93
2018-07-20T15:16:54.358Z,29.87
2018-07-20T15:19:23.020Z,29.72
2018-07-20T15:21:51.821Z,29.76
2018-07-20T15:24:20.380Z,29.99
2018-07-20T15:26:48.925Z,30.13
2018-07-20T15:29:17.531Z,30.26
2018-07-20T15:31:46.090Z,30.26
2018-07-20T15:34:14.687Z,30.49
2018-07-20T15:36:43.352Z,30.44
2018-07-20T15:39:12.728Z,30.65
2018-07-20T15:41:41.505Z,30.78
2018-07-20T15:44:10.059Z,30.69
2018-07-20T15:46:38.787Z,30.32
2018-07-20T15:49:07.278Z,29.97
2018-07-20T15:53:35.054Z,29.75
2018-07-20T15:54:04.513Z,29.75
2018-07-20T15:56:33.118Z,29.85
2018-07-20T15:59:01.791Z,29.81
2018-07-20T16:01:30.387Z,30.01
2018-07-20T16:03:58.959Z,29.89
2018-07-20T16:06:28.399Z,29.88
2018-07-20T16:08:57.773Z,29.64
2018-07-20T16:11:26.327Z,29.79
2018-07-20T16:13:54.938Z,29.79
2018-07-20T16:16:23.736Z,29.90
2018-07-20T16:18:52.351Z,30.02
2018-07-20T16:21:20.957Z,30.12
2018-07-20T16:23:49.539Z,30.26
2018-07-20T16:26:18.256Z,29.80
2018-07-20T16:28:46.965Z,29.87
2018-07-20T16:31:15.474Z,30.08
2018-07-20T16:33:44.067Z,30.36
2018-07-20T16:36:12.664Z,30.32
2018-07-20T16:38:41.228Z,30.35
2018-07-20T16:41:10.061Z,30.20
2018-07-20T16:43:38.966Z,30.09
2018-07-20T16:46:07.575Z,30.08
2018-07-20T16:48:36.116Z,30.18
2018-07-20T16:51:04.776Z,30.25
2018-07-20T16:53:33.331Z,30.35
2018-07-20T16:56:01.879Z,30.45
2018-07-20T16:58:30.437Z,30.30
2018-07-20T17:00:59.127Z,30.29
2018-07-20T17:03:27.766Z,30.36
2018-07-20T17:05:56.403Z,30.32
2018-07-20T17:08:24.992Z,30.20
2018-07-20T17:10:54.140Z,30.17
2018-07-20T17:13:23.861Z,29.89
2018-07-20T17:15:52.431Z,29.72
2018-07-20T17:18:21.032Z,29.63
2018-07-20T17:20:49.676Z,29.62
2018-07-20T17:23:18.400Z,29.29
2018-07-20T17:25:46.996Z,29.13
2018-07-20T17:28:15.621Z,28.93
2018-07-20T17:30:44.128Z,28.69
2018-07-20T17:33:13.431Z,28.56
2018-07-20T17:35:42.032Z,28.30
2018-07-20T17:38:10.639Z,28.30
2018-07-20T17:40:39.285Z,28.24
2018-07-20T17:43:07.847Z,28.18
2018-07-20T17:45:36.452Z,28.00
2018-07-20T17:48:05.073Z,27.72
2018-07-20T17:50:33.636Z,27.63
2018-07-20T17:53:02.579Z,27.64
2018-07-20T17:55:31.236Z,27.51
2018-07-20T17:57:59.820Z,27.27
2018-07-20T18:00:28.571Z,27.07
2018-07-20T18:02:57.521Z,26.91
2018-07-20T18:05:26.945Z,26.94
2018-07-20T18:07:55.508Z,26.75
2018-07-20T18:10:24.115Z,26.59
2018-07-20T18:12:53.602Z,26.21
2018-07-20T18:15:22.220Z,26.23
2018-07-20T18:17:51.030Z,26.26
2018-07-20T18:20:19.569Z,26.39
2018-07-20T18:22:48.191Z,26.47
2018-07-20T18:25:17.035Z,26.34
2018-07-20T18:27:45.705Z,26.14
2018-07-20T18:30:14.316Z,25.89
2018-07-20T18:32:42.924Z,25.67
2018-07-20T18:35:11.851Z,25.62
2018-07-20T18:37:40.407Z,25.64
2018-07-20T18:40:08.984Z,25.53
2018-07-20T18:42:37.520Z,25.09
2018-07-20T18:45:07.054Z,24.87
2018-07-20T18:47:35.688Z,25.00
2018-07-20T18:50:05.217Z,25.10
2018-07-20T18:52:33.801Z,24.91
2018-07-20T18:55:02.392Z,24.71
2018-07-20T18:57:31.109Z,24.82
2018-07-20T18:59:59.717Z,24.90
2018-07-20T19:02:28.290Z,24.83
2018-07-20T19:04:56.920Z,24.78
2018-07-20T19:07:25.551Z,24.71
2018-07-20T19:09:54.128Z,24.74
2018-07-20T19:12:23.793Z,24.73
2018-07-20T19:14:52.374Z,24.66
2018-07-20T19:17:20.947Z,24.55
2018-07-20T19:19:49.721Z,24.32
2018-07-20T19:22:18.272Z,24.13
2018-07-20T19:24:46.839Z,23.97
2018-07-20T19:27:15.376Z,23.90
2018-07-20T19:29:43.912Z,23.84
2018-07-20T19:32:12.872Z,23.85
2018-07-20T19:34:43.770Z,23.87
2018-07-20T19:37:12.399Z,23.80
2018-07-20T19:39:41.054Z,23.73
2018-07-20T19:42:09.644Z,23.58
2018-07-20T19:44:38.236Z,23.53
2018-07-20T19:47:08.351Z,23.54
2018-07-20T19:49:36.917Z,23.26
2018-07-20T19:52:05.542Z,22.99
2018-07-20T19:54:34.122Z,22.60
2018-07-20T19:57:02.800Z,22.56
2018-07-20T19:59:31.379Z,22.52
2018-07-20T20:01:59.934Z,22.62
2018-07-20T20:04:28.511Z,22.73
2018-07-20T20:06:57.986Z,22.58
2018-07-20T20:09:26.840Z,22.45
2018-07-20T20:11:55.384Z,22.47
2018-07-20T20:14:24.559Z,22.54
2018-07-20T20:16:53.231Z,22.48
2018-07-20T20:19:22.510Z,22.36
2018-07-20T20:21:51.084Z,22.21
2018-07-20T20:24:19.661Z,22.17
2018-07-20T20:26:48.223Z,22.23
2018-07-20T20:29:16.784Z,22.09
2018-07-20T20:31:45.347Z,21.82
2018-07-20T20:34:14.095Z,21.41
2018-07-20T20:36:42.712Z,21.29
2018-07-20T20:39:12.883Z,20.93
2018-07-20T20:41:41.856Z,21.22
2018-07-20T20:44:11.172Z,21.53
2018-07-20T20:46:40.436Z,21.77
2018-07-20T20:49:09.023Z,21.91
2018-07-20T20:51:37.730Z,21.96
2018-07-20T20:54:06.969Z,21.98
2018-07-20T20:56:35.531Z,22.09
2018-07-20T20:59:05.190Z,22.18
2018-07-20T21:01:34.091Z,22.11
2018-07-20T21:04:02.803Z,22.00
2018-07-20T21:06:31.366Z,21.99
2018-07-20T21:08:59.932Z,22.01
2018-07-20T21:11:29.805Z,21.92
2018-07-20T21:13:58.577Z,21.82
2018-07-20T21:16:28.130Z,21.77
2018-07-20T21:18:56.682Z,21.67
2018-07-20T21:21:26.599Z,21.64
2018-07-20T21:23:55.204Z,21.53
2018-07-20T21:26:23.773Z,21.39
2018-07-20T21:28:52.406Z,21.41
2018-07-20T21:31:20.972Z,21.54
2018-07-20T21:33:49.554Z,21.51
2018-07-20T21:36:18.445Z,21.52
2018-07-20T21:38:47.100Z,21.58
2018-07-20T21:41:17.680Z,21.62
2018-07-20T21:43:47.139Z,21.66
2018-07-20T21:46:15.748Z,21.81
2018-07-20T21:48:44.350Z,21.71
2018-07-20T21:51:14.140Z,21.55
2018-07-20T21:53:42.811Z,21.50
2018-07-20T21:56:11.402Z,21.45
2018-07-20T21:58:40.228Z,21.43
2018-07-20T22:01:08.990Z,21.30
2018-07-20T22:03:37.563Z,21.30
2018-07-20T22:06:06.965Z,21.19
2018-07-20T22:08:36.500Z,21.20
2018-07-20T22:11:05.261Z,21.19
2018-07-20T22:13:34.342Z,21.24
2018-07-20T22:16:02.908Z,21.30
2018-07-20T22:18:31.469Z,21.16
2018-07-20T22:21:00.025Z,21.05
2018-07-20T22:23:28.670Z,21.00
2018-07-20T22:25:57.252Z,21.05
2018-07-20T22:28:25.846Z,21.07
2018-07-20T22:30:54.413Z,21.06
2018-07-20T22:33:22.984Z,21.13
2018-07-20T22:35:51.660Z,21.05
2018-07-20T22:38:20.376Z,21.02
2018-07-20T22:40:49.359Z,21.03
2018-07-20T22:43:17.897Z,21.03
2018-07-20T22:45:46.426Z,20.99
2018-07-20T22:48:15.047Z,20.92
2018-07-20T22:50:44.147Z,20.90
2018-07-20T22:53:13.244Z,20.90
2018-07-20T22:55:41.932Z,20.71
2018-07-20T22:58:10.508Z,20.61
2018-07-20T23:00:39.057Z,20.49
2018-07-20T23:03:07.708Z,20.36
2018-07-20T23:05:36.484Z,20.38
2018-07-20T23:08:05.069Z,20.36
2018-07-20T23:10:33.640Z,20.38
2018-07-20T23:13:02.197Z,20.39
2018-07-20T23:15:32.340Z,20.40
2018-07-20T23:18:01.099Z,20.34
2018-07-20T23:20:30.025Z,20.35
2018-07-20T23:22:58.602Z,20.39
2018-07-20T23:25:28.050Z,20.43
2018-07-20T23:27:56.757Z,20.41
2018-07-20T23:30:25.552Z,20.30
2018-07-20T23:32:54.363Z,20.16
2018-07-20T23:35:23.000Z,20.11
2018-07-20T23:37:51.564Z,20.13
2018-07-20T23:40:20.147Z,20.13
2018-07-20T23:42:48.771Z,20.03
2018-07-20T23:45:17.346Z,19.94
2018-07-20T23:47:46.038Z,19.90
2018-07-20T23:50:14.608Z,19.85
2018-07-20T23:52:43.289Z,19.88
2018-07-20T23:55:12.252Z,19.86
2018-07-20T23:57:40.812Z,19.90
